No Warnings, Watches, or Advisories

Active alerts


No alerts

Amazon Weather

Hours of Daylight

14 hrs 59 min 58 sec
of Daylight Today
62.4% Day 37.6% Night Which is 55 sec Shorter
Than Yesterday

South Webcam more information South Webcam


NorthWest Webcam more information NorthWest Webcam


You find our weather info also at:

UK Metoffice

Weather Underground

Mid-Atlantic Weather Network

WeatherlinkIP

Citizen Weather Observer Program (CWOP)

HAMweather, WeatherForYou, PWS Weather



Nearby METAR Reports

   
KDUJ - Du Bois, Pennsylvania, USA
Distance from station: NNE 16 mi
Updated: Jul 5 2020 9:53 pm
Few Clouds  
Few Clouds  
   Wind: South 4.6 mph
Wind: South 4.6 mph
Temperature: 77°F
Dew Point: 59°F
Humidity: 54%
Barometer: 30.04 inHg
Clouds: Few Clouds
Visibility: 10 mi
Cloud details: Few Clouds 9000 ft,
Few Clouds 11000 ft
KDUJ 060153Z AUTO 18004KT 10SM FEW090 FEW110 25/15 A3004 RMK AO2 SLP156 T02500150
KIDI - Indiana/Stewart, Pennsylvania, USA
Distance from station: SSW 23 mi
Updated: Jul 5 2020 10:15 pm
Clear  
Clear  
   Wind: Calm
Wind: Calm
Temperature: 73.4°F
Dew Point: 59°F
Humidity: 61%
Barometer: 30.06 inHg
Clouds: Clear
Visibility: 10 mi
Cloud details: Clear
KIDI 060215Z AUTO 00000KT 10SM CLR 23/15 A3006 RMK A01
KFIG - Clearfield, Pennsylvania, USA
Distance from station: ENE 31 mi
Updated: Jul 5 2020 9:54 pm
Clear  
Clear  
   Wind: South 3.5 mph
Wind: South 3.5 mph
Temperature: 75.2°F
Dew Point: 64.4°F
Humidity: 69%
Barometer: 30.04 inHg
Clouds: Clear
Visibility: 7 mi
Cloud details: Clear
KFIG 060154Z AUTO 19003KT 7SM CLR 24/18 A3004 RMK AO2 SLP161 T02390178
KJST - Johnstown, Pennsylvania, USA
Distance from station: S 44 mi
Updated: Jul 5 2020 9:54 pm
Few Clouds  
Few Clouds  
   Wind: Calm
Wind: Calm
Temperature: 68°F
Dew Point: 60.8°F
Humidity: 78%
Barometer: 30.06 inHg
Clouds: Few Clouds
Visibility: 10 mi
Cloud details: Few Clouds 10000 ft
KJST 060154Z AUTO 00000KT 10SM FEW100 20/16 A3006 RMK AO2 SLP162 T02000161
KPIT - Pittsburgh, Pennsylvania, USA
Distance from station: WSW 74 mi
Updated: Jul 5 2020 9:51 pm
Partly Cloudy  
Partly Cloudy  
   Wind: West 3.5 mph
Wind: West 3.5 mph
Temperature: 82.4°F
Heat Index: 82.4°F
Dew Point: 62.6°F
Humidity: 51%
Barometer: 29.99 inHg
Clouds: Partly Cloudy
Visibility: 10 mi
Cloud details: Few Clouds 6500 ft,
Partly Cloudy 25000 ft
KPIT 060151Z 27003KT 10SM FEW065 SCT250 28/17 A2999 RMK AO2 SLP152 T02780167
KLBE - Latrobe/Westmorl, Pennsylvania, USA
Distance from station: SSW 52 mi
Updated: Jul 5 2020 10:15 pm
Few Clouds  
Few Clouds  
   Wind: Calm
Wind: Calm
Temperature: 77°F
Dew Point: 60.8°F
Humidity: 57%
Barometer: 30 inHg
Clouds: Few Clouds
Visibility: 10 mi
Cloud details: Few Clouds 7500 ft,
Few Clouds 8500 ft
KLBE 060215Z AUTO 00000KT 10SM FEW075 FEW085 25/16 A3000 RMK AO2
KBTP - Butler Co., Pennsylvania, USA
Distance from station: WSW 52 mi
Updated: Jul 5 2020 9:56 pm
Mostly Cloudy  
Mostly Cloudy  
   Wind: East 5.8 mph
Wind: East 5.8 mph
Temperature: 80.6°F
Heat Index: 82.4°F
Dew Point: 66.2°F
Humidity: 62%
Barometer: 30.01 inHg
Clouds: Mostly Cloudy
Visibility: 10 mi
Cloud details: Mostly Cloudy 6000 ft
KBTP 060156Z AUTO 10005KT 10SM BKN060 27/19 A3001 RMK AO2 SLPNO T02720189 PNO $
KUCP - New Castle Muni, Pennsylvania, USA
Distance from station: W 75 mi
Updated: Jul 5 2020 9:56 pm
Clear  
Clear  
   Wind: North 4.6 mph
Wind: North 4.6 mph
Temperature: 78.8°F
Dew Point: 64.4°F
Humidity: 61%
Barometer: 30.01 inHg
Clouds: Clear
Visibility: 10 mi
Cloud details: Clear
KUCP 060156Z AUTO 36004KT 10SM CLR 26/18 A3001 RMK AO2 SLP167 T02610183 PNO $
KFKL - Franklin, Pennsylvania, USA
Distance from station: WNW 54 mi
Updated: Jul 5 2020 9:56 pm
Clear  
Clear  
   Wind: NNE 8.1 mph
Wind: NNE 8.1 mph
Temperature: 75.2°F
Dew Point: 62.6°F
Humidity: 65%
Barometer: 30.04 inHg
Clouds: Clear
Visibility: 10 mi
Cloud details: Clear
KFKL 060156Z AUTO 02007KT 10SM CLR 24/17 A3004 RMK AO2 SLP160 T02440172
KAOO - Altoona, Pennsylvania, USA
Distance from station: SE 57 mi
Updated: Jul 5 2020 9:53 pm
Clear  
Clear  
   Wind: North 3.5 mph
Wind: North 3.5 mph
Temperature: 69.8°F
Dew Point: 60.8°F
Humidity: 73%
Barometer: 30.03 inHg
Clouds: Clear
Visibility: 10 mi
Cloud details: Clear
KAOO 060153Z AUTO 35003KT 10SM CLR 21/16 A3003 RMK AO2 SLP157 T02110161
KUNV - State College, Pennsylvania, USA
Distance from station: E 61 mi
Updated: Jul 5 2020 10:15 pm
Clear  
Clear  
   Wind: Calm
Wind: Calm
Temperature: 77°F
Dew Point: 64.4°F
Humidity: 65%
Barometer: 30.02 inHg
Clouds: Clear
Visibility: 10 mi
Cloud details: Clear
KUNV 060215Z AUTO 00000KT 10SM CLR 25/18 A3002 RMK AO2 T02530176
KBFD - Bradford, Pennsylvania, USA
Distance from station: NNE 62 mi
Updated: Jul 5 2020 9:53 pm
Clear  
Clear  
   Wind: North 3.5 mph
Wind: North 3.5 mph
Temperature: 73.4°F
Dew Point: 59°F
Humidity: 61%
Barometer: 30.08 inHg
Clouds: Clear
Visibility: 10 mi
Cloud details: Clear
KBFD 060153Z AUTO 01003KT 10SM CLR 23/15 A3008 RMK AO2 SLP166 T02280150

Script developed by  Saratoga-weather.org Adapted for the template by  Weerstation Leuven

Equipment we use:

Weather-station
Davis VP2

Weather-program
Cumulus

Weather-server
Dell Latitude e5450

Provider
Host On A Rope

Davis VP2

Cumulus

Dell Latitude e5450

Host On A Rope